Time;durP1;ratioP1;P1;durP2;ratioP2;P2;SDS_P1;SDS_P2;PMS_P1;PMS_P2;Temp;Humidity;BMP_temperature;BMP_pressure;BME280_temperature;BME280_humidity;BME280_pressure;Samples;Min_cycle;Max_cycle;Signal;HPM_P1;HPM_P2
2024/01/22 00:02:25;;;;;;;;;;;;;;;2.86;48.75;102454.53;5086133;28;19917;-80
2024/01/22 00:05:20;;;;;;;;;;;;;;;2.89;48.88;102455.97;5085662;28;19920;-77
2024/01/22 00:08:08;;;;;;;;;;;;;;;2.80;48.82;102450.03;5087960;28;19920;-78
2024/01/22 00:10:54;;;;;;;;;;;;;;;2.84;47.61;102451.28;5088669;28;19920;-78
2024/01/22 00:13:44;;;;;;;;;;;;;;;2.76;48.92;102427.34;5084124;28;19917;-78
2024/01/22 00:16:39;;;;;;;;;;;;;;;2.82;48.84;102444.47;5081533;28;19916;-80
2024/01/22 00:19:31;;;;;;;;;;;;;;;2.80;48.94;102439.31;5084476;28;19916;-80
2024/01/22 00:22:20;;;;;;;;;;;;;;;2.85;48.90;102435.94;5086278;28;20396;-80
2024/01/22 00:25:07;;;;;;;;;;;;;;;2.81;48.28;102435.56;5087841;28;20139;-80
2024/01/22 00:27:54;;;;;;;;;;;;;;;2.79;48.39;102426.13;5083439;28;20235;-80
2024/01/22 00:30:46;;;;;;;;;;;;;;;2.73;48.40;102425.13;5085534;28;19917;-80
2024/01/22 00:33:35;;;;;;;;;;;;;;;2.85;47.05;102419.81;5084773;28;19920;-80
2024/01/22 00:36:27;;;;;;;;;;;;;;;2.92;46.53;102417.91;5083638;28;20305;-78
2024/01/22 00:39:16;;;;;;;;;;;;;;;3.11;47.36;102414.19;5085584;28;20300;-78
2024/01/22 00:42:04;;;;;;;;;;;;;;;3.15;48.55;102426.13;5080289;28;19925;-78
2024/01/22 00:44:50;;;;;;;;;;;;;;;3.04;48.51;102416.13;5077963;28;19920;-79
2024/01/22 00:47:43;;;;;;;;;;;;;;;2.82;48.99;102415.72;5083352;28;19924;-78
2024/01/22 00:50:32;;;;;;;;;;;;;;;2.66;48.90;102420.84;5086613;28;19916;-78
2024/01/22 00:53:22;;;;;;;;;;;;;;;2.71;48.66;102421.84;5080879;28;19920;-78
2024/01/22 00:56:09;;;;;;;;;;;;;;;2.67;48.12;102417.13;5083603;28;19916;-80
2024/01/22 00:59:01;;;;;;;;;;;;;;;2.70;46.82;102411.28;5083777;28;19917;-80
2024/01/22 01:01:56;;;;;;;;;;;;;;;2.59;47.13;102410.97;5079740;28;19917;-80
2024/01/22 01:04:48;;;;;;;;;;;;;;;2.75;45.75;102404.22;5061677;28;19921;-80
2024/01/22 01:07:37;;;;;;;;;;;;;;;2.83;49.26;102417.38;5060559;28;19921;-78
2024/01/22 01:10:24;;;;;;;;;;;;;;;2.74;47.08;102418.72;5066598;28;19916;-80
2024/01/22 01:13:16;;;;;;;;;;;;;;;2.70;46.42;102413.97;5062543;28;19917;-79
2024/01/22 01:16:03;;;;;;;;;;;;;;;2.61;45.89;102404.56;5060491;28;19917;-80
2024/01/22 01:18:50;;;;;;;;;;;;;;;2.60;47.06;102403.75;5069786;28;20629;-80
2024/01/22 01:21:42;;;;;;;;;;;;;;;2.60;49.05;102401.06;5067943;28;19917;-80
2024/01/22 01:24:34;;;;;;;;;;;;;;;2.53;47.94;102398.47;5063222;28;20344;-80
2024/01/22 01:27:27;;;;;;;;;;;;;;;2.46;49.23;102396.84;5061852;28;19921;-80
2024/01/22 01:30:19;;;;;;;;;;;;;;;2.35;49.17;102402.94;5058800;28;19925;-80
2024/01/22 01:33:11;;;;;;;;;;;;;;;2.24;49.12;102412.50;5064975;28;19920;-80
2024/01/22 01:36:03;;;;;;;;;;;;;;;2.15;49.12;102403.91;5061813;28;19917;-80
2024/01/22 01:38:52;;;;;;;;;;;;;;;2.27;48.61;102400.53;5060309;28;19921;-80
2024/01/22 01:41:42;;;;;;;;;;;;;;;2.53;48.15;102406.50;5062909;28;19921;-80
2024/01/22 01:44:43;;;;;;;;;;;;;;;2.65;47.48;102403.09;5059285;28;19917;-80
2024/01/22 01:47:33;;;;;;;;;;;;;;;2.51;48.38;102403.22;5057137;28;20393;-80
2024/01/22 01:50:22;;;;;;;;;;;;;;;2.53;48.14;102408.38;5059665;28;19920;-81
2024/01/22 01:53:14;;;;;;;;;;;;;;;2.53;46.73;102406.50;5059092;28;20475;-80
2024/01/22 01:56:04;;;;;;;;;;;;;;;2.18;48.63;102417.94;5059547;28;19920;-80
2024/01/22 01:58:54;;;;;;;;;;;;;;;2.30;48.55;102414.34;5061652;28;20397;-79
2024/01/22 02:01:43;;;;;;;;;;;;;;;2.28;48.35;102405.69;5058591;28;19920;-81
2024/01/22 02:04:29;;;;;;;;;;;;;;;2.27;49.14;102409.41;5063194;28;19917;-80
2024/01/22 02:07:21;;;;;;;;;;;;;;;2.37;48.17;102404.38;5059232;28;19925;-80
2024/01/22 02:10:16;;;;;;;;;;;;;;;2.24;48.71;102404.47;5061731;28;19917;-80
2024/01/22 02:13:05;;;;;;;;;;;;;;;2.19;49.75;102409.66;5065328;28;19921;-80
2024/01/22 02:15:49;;;;;;;;;;;;;;;2.43;47.39;102408.06;5063185;28;19925;-80
2024/01/22 02:18:36;;;;;;;;;;;;;;;1.93;48.89;102413.34;5061572;28;19921;-80
2024/01/22 02:21:28;;;;;;;;;;;;;;;2.21;49.29;102402.22;5064976;28;19916;-80
2024/01/22 02:24:18;;;;;;;;;;;;;;;2.28;46.32;102402.19;5062821;28;20301;-79
2024/01/22 02:27:07;;;;;;;;;;;;;;;2.50;46.47;102404.25;5060083;28;19920;-80
2024/01/22 02:29:56;;;;;;;;;;;;;;;2.44;47.44;102393.56;5061896;28;19929;-80
2024/01/22 02:32:44;;;;;;;;;;;;;;;2.22;48.64;102395.00;5059731;28;19917;-80
2024/01/22 02:35:35;;;;;;;;;;;;;;;2.26;48.39;102393.53;5057037;28;19920;-80
2024/01/22 02:38:27;;;;;;;;;;;;;;;2.18;48.00;102391.13;5061243;28;19917;-81
2024/01/22 02:41:17;;;;;;;;;;;;;;;2.21;47.82;102398.72;5059776;28;20401;-80
2024/01/22 02:44:04;;;;;;;;;;;;;;;2.12;50.57;102401.69;5063018;28;19920;-80
2024/01/22 02:46:56;;;;;;;;;;;;;;;2.24;48.60;102396.41;5059139;28;19925;-80
2024/01/22 02:49:43;;;;;;;;;;;;;;;2.24;46.53;102399.09;5058572;28;19917;-80
2024/01/22 02:52:32;;;;;;;;;;;;;;;2.28;46.14;102402.19;5062613;28;19917;-80
2024/01/22 02:55:24;;;;;;;;;;;;;;;2.23;46.49;102404.72;5059770;28;19916;-80
2024/01/22 02:58:13;;;;;;;;;;;;;;;2.00;48.08;102394.53;5058067;28;20301;-81
2024/01/22 03:01:00;;;;;;;;;;;;;;;1.94;49.67;102403.44;5061862;28;19917;-81
2024/01/22 03:03:52;;;;;;;;;;;;;;;1.92;52.42;102403.69;5060105;28;19921;-80
2024/01/22 03:06:44;;;;;;;;;;;;;;;1.94;50.17;102395.41;5057013;28;20389;-80
2024/01/22 03:09:36;;;;;;;;;;;;;;;1.95;48.31;102397.88;5061997;28;19920;-80
2024/01/22 03:12:25;;;;;;;;;;;;;;;1.93;50.21;102393.78;5058990;28;20389;-80
2024/01/22 03:15:17;;;;;;;;;;;;;;;1.99;50.45;102391.03;5061578;28;19920;-80
2024/01/22 03:18:09;;;;;;;;;;;;;;;2.10;50.01;102379.59;5060942;28;20301;-81
2024/01/22 03:21:03;;;;;;;;;;;;;;;1.94;51.05;102379.31;5058832;28;19920;-81
2024/01/22 03:23:52;;;;;;;;;;;;;;;1.98;51.68;102380.53;5063171;28;19917;-80
2024/01/22 03:26:44;;;;;;;;;;;;;;;1.96;49.63;102382.59;5058972;28;19917;-81
2024/01/22 03:29:33;;;;;;;;;;;;;;;1.85;48.72;102380.59;5056608;28;19917;-80
2024/01/22 03:32:20;;;;;;;;;;;;;;;1.73;49.89;102388.50;5064391;28;19920;-80
2024/01/22 03:35:10;;;;;;;;;;;;;;;1.67;50.38;102386.72;5061325;28;19921;-80
2024/01/22 03:38:02;;;;;;;;;;;;;;;1.49;49.82;102383.91;5059513;28;20380;-80
2024/01/22 03:40:54;;;;;;;;;;;;;;;1.35;50.82;102374.28;5062626;28;19921;-80
2024/01/22 03:43:42;;;;;;;;;;;;;;;1.38;50.37;102377.34;5067779;28;19921;-81
2024/01/22 03:46:34;;;;;;;;;;;;;;;1.48;50.46;102369.69;5080152;28;19920;-80
2024/01/22 03:49:26;;;;;;;;;;;;;;;1.35;50.91;102379.66;5081191;28;19920;-80
2024/01/22 03:52:16;;;;;;;;;;;;;;;1.42;49.27;102369.72;5078717;28;19916;-81
2024/01/22 03:55:13;;;;;;;;;;;;;;;1.34;50.11;102378.81;5081895;28;19924;-81
2024/01/22 03:58:00;;;;;;;;;;;;;;;1.29;50.28;102379.47;5080109;28;19916;-81
2024/01/22 04:00:51;;;;;;;;;;;;;;;1.28;50.46;102375.13;5076465;28;19916;-80
2024/01/22 04:03:41;;;;;;;;;;;;;;;1.48;50.07;102374.22;5080466;28;19920;-81
2024/01/22 04:06:28;;;;;;;;;;;;;;;1.60;49.74;102380.56;5076812;28;20377;-80
2024/01/22 04:09:15;;;;;;;;;;;;;;;1.58;49.02;102375.41;5055986;28;19929;-81
2024/01/22 04:12:05;;;;;;;;;;;;;;;1.51;49.50;102374.63;5059995;28;19917;-81
2024/01/22 04:14:51;;;;;;;;;;;;;;;1.61;49.68;102374.97;5057166;28;19921;-80
2024/01/22 04:17:43;;;;;;;;;;;;;;;1.57;48.90;102381.81;5055981;28;20373;-77
2024/01/22 04:20:28;;;;;;;;;;;;;;;1.56;48.79;102380.16;5059841;28;19917;-80
2024/01/22 04:23:17;;;;;;;;;;;;;;;1.31;49.66;102373.06;5065610;28;19924;-78
2024/01/22 04:26:07;;;;;;;;;;;;;;;1.30;51.12;102369.56;5071014;28;19916;-78
2024/01/22 04:28:56;;;;;;;;;;;;;;;1.33;48.76;102376.34;5078830;28;19925;-79
2024/01/22 04:31:44;;;;;;;;;;;;;;;1.28;50.37;102382.34;5078611;28;19917;-78
2024/01/22 04:34:31;;;;;;;;;;;;;;;1.29;49.68;102375.97;5081726;28;19920;-77
2024/01/22 04:37:20;;;;;;;;;;;;;;;1.36;50.25;102376.75;5079558;28;19920;-79
2024/01/22 04:40:10;;;;;;;;;;;;;;;1.35;50.50;102372.44;5076915;28;19917;-79
2024/01/22 04:42:59;;;;;;;;;;;;;;;1.48;51.82;102374.22;5080805;28;19917;-79
2024/01/22 04:45:49;;;;;;;;;;;;;;;1.37;49.72;102378.41;5077825;28;19939;-80
2024/01/22 04:48:36;;;;;;;;;;;;;;;1.33;49.42;102366.44;5077005;28;19920;-80
2024/01/22 04:51:26;;;;;;;;;;;;;;;1.29;48.91;102360.72;5080534;28;19920;-80
2024/01/22 04:54:18;;;;;;;;;;;;;;;1.23;48.71;102363.41;5077994;28;19916;-80
2024/01/22 04:57:09;;;;;;;;;;;;;;;1.35;49.90;102351.00;5075060;28;19920;-80
2024/01/22 04:59:59;;;;;;;;;;;;;;;1.54;48.82;102357.28;5078724;28;19916;-79
2024/01/22 05:02:51;;;;;;;;;;;;;;;1.59;49.46;102358.28;5077182;28;19920;-80
2024/01/22 05:05:43;;;;;;;;;;;;;;;1.40;51.25;102361.91;5077846;28;19920;-78
2024/01/22 05:08:30;;;;;;;;;;;;;;;1.29;48.83;102349.16;5061322;28;19925;-81
2024/01/22 05:11:22;;;;;;;;;;;;;;;1.25;51.12;102359.50;5055092;28;19916;-80
2024/01/22 05:14:11;;;;;;;;;;;;;;;1.26;52.42;102360.31;5065270;28;19917;-79
2024/01/22 05:17:00;;;;;;;;;;;;;;;1.25;50.30;102366.72;5068193;28;19936;-80
2024/01/22 05:19:52;;;;;;;;;;;;;;;1.26;50.66;102371.03;5067740;28;19917;-79
2024/01/22 05:22:42;;;;;;;;;;;;;;;1.32;49.49;102364.00;5069550;28;19920;-80
2024/01/22 05:25:32;;;;;;;;;;;;;;;1.31;49.71;102375.75;5077840;28;20320;-80
2024/01/22 05:28:19;;;;;;;;;;;;;;;1.40;48.48;102377.16;5074083;28;19924;-79
2024/01/22 05:31:10;;;;;;;;;;;;;;;1.21;51.92;102384.25;5075395;28;20580;-78
2024/01/22 05:34:02;;;;;;;;;;;;;;;1.24;49.23;102383.81;5069741;28;20549;-80
2024/01/22 05:36:55;;;;;;;;;;;;;;;1.33;49.46;102371.81;5051299;28;19916;-79
2024/01/22 05:39:47;;;;;;;;;;;;;;;1.37;48.71;102366.88;5054103;28;19920;-79
2024/01/22 05:42:36;;;;;;;;;;;;;;;1.47;48.06;102361.88;5052379;28;19917;-79
2024/01/22 05:45:26;;;;;;;;;;;;;;;1.53;48.22;102355.63;5057398;28;19916;-78
2024/01/22 05:48:17;;;;;;;;;;;;;;;1.51;49.55;102355.03;5072222;28;19921;-79
2024/01/22 05:51:11;;;;;;;;;;;;;;;1.35;49.31;102355.53;5060198;28;19920;-79
2024/01/22 05:54:06;;;;;;;;;;;;;;;1.33;50.17;102350.38;5064345;28;19917;-79
2024/01/22 05:56:58;;;;;;;;;;;;;;;1.24;49.65;102346.31;5063128;28;19920;-79
2024/01/22 05:59:50;;;;;;;;;;;;;;;1.26;49.70;102344.25;5060436;28;19921;-78
2024/01/22 06:02:42;;;;;;;;;;;;;;;1.13;50.55;102349.66;5064831;28;19920;-79
2024/01/22 06:05:32;;;;;;;;;;;;;;;1.13;49.68;102346.97;5058022;28;19916;-78
2024/01/22 06:08:24;;;;;;;;;;;;;;;1.08;50.20;102346.78;5067563;28;19920;-79
2024/01/22 06:11:16;;;;;;;;;;;;;;;1.14;48.00;102343.25;5065601;28;19916;-79
2024/01/22 06:14:08;;;;;;;;;;;;;;;1.31;49.36;102349.78;5062836;28;19920;-79
2024/01/22 06:17:05;;;;;;;;;;;;;;;1.79;49.31;102344.75;5062966;28;19916;-78
2024/01/22 06:19:56;;;;;;;;;;;;;;;2.15;47.80;102342.22;5064827;28;19925;-78
2024/01/22 06:22:48;;;;;;;;;;;;;;;2.41;46.51;102330.41;5067802;28;19917;-78
2024/01/22 06:25:36;;;;;;;;;;;;;;;2.15;44.72;102339.53;5065683;28;19921;-78
2024/01/22 06:28:25;;;;;;;;;;;;;;;1.57;45.70;102338.94;5062597;28;19921;-79
2024/01/22 06:31:17;;;;;;;;;;;;;;;1.60;46.21;102330.44;5068864;28;19916;-78
2024/01/22 06:34:09;;;;;;;;;;;;;;;1.49;46.59;102333.81;5078519;28;19916;-79
2024/01/22 06:37:04;;;;;;;;;;;;;;;1.36;46.55;102328.53;5075684;28;19916;-80
2024/01/22 06:39:56;;;;;;;;;;;;;;;1.19;47.26;102343.44;5062468;28;19917;-80
2024/01/22 06:42:48;;;;;;;;;;;;;;;1.35;47.19;102348.31;5067203;28;19921;-79
2024/01/22 06:45:37;;;;;;;;;;;;;;;1.26;47.43;102339.72;5066967;28;19921;-79
2024/01/22 06:48:27;;;;;;;;;;;;;;;1.05;48.93;102336.50;5068073;28;19925;-80
2024/01/22 06:51:16;;;;;;;;;;;;;;;0.72;49.94;102331.25;5063369;28;19916;-80
2024/01/22 06:54:03;;;;;;;;;;;;;;;0.68;49.88;102330.03;5087597;28;19916;-80
2024/01/22 06:56:48;;;;;;;;;;;;;;;0.94;49.48;102329.13;5073832;28;20300;-80
2024/01/22 06:59:33;;;;;;;;;;;;;;;0.96;48.52;102322.53;5071586;28;19916;-80
2024/01/22 07:02:23;;;;;;;;;;;;;;;1.21;48.60;102334.16;5066729;28;19917;-80
2024/01/22 07:05:16;;;;;;;;;;;;;;;1.19;47.80;102333.56;5064262;28;19921;-80
2024/01/22 07:08:05;;;;;;;;;;;;;;;1.04;48.65;102330.31;5061168;28;19928;-80
2024/01/22 07:10:55;;;;;;;;;;;;;;;1.08;48.21;102344.91;5066417;28;19917;-80
2024/01/22 07:13:47;;;;;;;;;;;;;;;0.94;47.92;102337.16;5071955;28;19916;-80
2024/01/22 07:16:36;;;;;;;;;;;;;;;1.14;49.45;102341.41;5066797;28;19917;-80
2024/01/22 07:19:26;;;;;;;;;;;;;;;1.28;48.98;102342.16;5079908;28;19921;-80
2024/01/22 07:22:13;;;;;;;;;;;;;;;1.19;49.45;102338.09;5067480;28;19916;-80
2024/01/22 07:25:00;;;;;;;;;;;;;;;1.42;49.00;102340.25;5063038;28;19917;-80
2024/01/22 07:27:45;;;;;;;;;;;;;;;1.41;47.46;102336.75;5067187;28;19924;-80
2024/01/22 07:30:30;;;;;;;;;;;;;;;1.50;47.44;102329.28;5072529;28;19921;-80
2024/01/22 07:33:16;;;;;;;;;;;;;;;1.56;47.90;102331.91;5072286;28;19920;-80
2024/01/22 07:36:03;;;;;;;;;;;;;;;1.61;46.99;102331.28;5075353;28;19917;-80
2024/01/22 07:38:54;;;;;;;;;;;;;;;1.51;47.69;102336.28;5078713;28;19921;-80
2024/01/22 07:41:44;;;;;;;;;;;;;;;1.47;47.65;102335.91;5079468;28;20392;-80
2024/01/22 07:44:31;;;;;;;;;;;;;;;1.63;48.89;102346.09;5083117;28;19916;-80
2024/01/22 07:47:16;;;;;;;;;;;;;;;1.54;48.41;102342.03;5084886;28;19920;-80
2024/01/22 07:50:09;;;;;;;;;;;;;;;1.74;47.79;102336.53;5078283;28;19917;-79
2024/01/22 07:52:59;;;;;;;;;;;;;;;1.73;48.54;102348.28;5081651;28;20398;-80
2024/01/22 07:55:48;;;;;;;;;;;;;;;1.70;48.99;102346.88;5082818;28;19920;-80
2024/01/22 07:58:40;;;;;;;;;;;;;;;1.73;48.69;102339.44;5080271;28;19925;-80
2024/01/22 08:01:29;;;;;;;;;;;;;;;1.76;50.22;102336.31;5082613;28;19920;-80
2024/01/22 08:04:16;;;;;;;;;;;;;;;1.73;51.78;102336.75;5071642;28;19916;-79
2024/01/22 08:07:06;;;;;;;;;;;;;;;1.89;52.05;102338.91;5073302;28;19920;-80
2024/01/22 08:09:58;;;;;;;;;;;;;;;1.96;51.97;102323.59;5072137;28;19925;-80
2024/01/22 08:12:50;;;;;;;;;;;;;;;2.01;51.78;102315.72;5074344;28;19920;-80
2024/01/22 08:15:45;;;;;;;;;;;;;;;2.04;51.57;102313.41;5080720;28;19920;-80
2024/01/22 08:18:51;;;;;;;;;;;;;;;1.93;50.95;102318.66;5099656;27;20260;-80
2024/01/22 08:21:43;;;;;;;;;;;;;;;1.89;52.22;102325.50;5103744;28;19920;-80
2024/01/22 08:24:34;;;;;;;;;;;;;;;2.08;51.24;102311.13;5095903;28;19920;-81
2024/01/22 08:27:26;;;;;;;;;;;;;;;2.25;52.66;102320.25;5092043;28;19916;-80
2024/01/22 08:30:18;;;;;;;;;;;;;;;2.27;53.43;102320.84;5094882;28;19916;-79
2024/01/22 08:33:10;;;;;;;;;;;;;;;2.51;53.51;102320.00;5089093;28;19927;-79
2024/01/22 08:36:02;;;;;;;;;;;;;;;2.56;52.77;102309.41;5088571;28;19917;-79
2024/01/22 08:38:54;;;;;;;;;;;;;;;2.69;51.58;102310.31;5095140;28;19928;-80
2024/01/22 08:41:46;;;;;;;;;;;;;;;2.78;51.95;102312.47;5090798;28;19920;-79
2024/01/22 08:44:38;;;;;;;;;;;;;;;2.75;51.61;102307.53;5094509;28;19916;-79
2024/01/22 08:47:28;;;;;;;;;;;;;;;2.85;52.06;102307.81;5100614;28;19972;-80
2024/01/22 08:50:20;;;;;;;;;;;;;;;2.96;51.86;102309.78;5099947;28;19916;-80
2024/01/22 08:53:12;;;;;;;;;;;;;;;2.96;50.79;102312.44;5092598;28;19924;-81
2024/01/22 08:56:07;;;;;;;15.98;5.25;;;;;;;3.37;49.95;102311.72;5083302;28;20398;-77
2024/01/22 08:59:02;;;;;;;11.50;4.72;;;;;;;3.39;48.18;102309.63;5089079;28;20119;-78
2024/01/22 09:01:54;;;;;;;16.35;4.53;;;;;;;3.41;47.52;102307.50;5091735;28;20039;-78
2024/01/22 09:04:48;;;;;;;9.07;3.92;;;;;;;3.51;48.07;102314.22;5090735;28;20051;-81
2024/01/22 09:07:41;;;;;;;7.50;3.78;;;;;;;3.72;47.29;102319.88;5088931;28;20043;-80
2024/01/22 09:10:36;;;;;;;11.88;4.30;;;;;;;3.84;46.33;102328.00;5091615;28;20035;-81
2024/01/22 09:13:27;;;;;;;8.57;3.88;;;;;;;3.82;47.95;102319.31;5088030;28;20047;-79
2024/01/22 09:16:14;;;;;;;24.80;6.18;;;;;;;3.85;47.38;102327.78;5090318;28;20055;-77
2024/01/22 09:19:06;;;;;;;11.45;5.10;;;;;;;3.95;46.08;102339.84;5091309;28;20055;-78
2024/01/22 09:21:58;;;;;;;9.60;4.65;;;;;;;3.94;45.84;102333.63;5093235;28;20055;-79
2024/01/22 09:24:53;;;;;;;8.95;3.60;;;;;;;4.05;44.80;102334.72;5093842;28;20051;-80
2024/01/22 09:27:45;;;;;;;13.18;5.20;;;;;;;4.30;46.59;102338.84;5090945;28;20049;-79
2024/01/22 09:30:35;;;;;;;20.55;5.60;;;;;;;4.39;46.40;102333.91;5080688;28;20051;-78
2024/01/22 09:33:27;;;;;;;12.73;4.85;;;;;;;4.49;47.22;102334.16;5081389;28;20047;-79
2024/01/22 09:36:21;;;;;;;26.77;5.40;;;;;;;4.61;48.90;102342.22;5063130;28;20055;-79
2024/01/22 09:39:16;;;;;;;13.70;5.17;;;;;;;4.77;48.84;102335.31;5083246;28;20051;-80
2024/01/22 09:42:06;;;;;;;12.63;5.53;;;;;;;4.63;50.42;102335.53;5081664;28;20044;-80
2024/01/22 09:45:01;;;;;;;22.45;6.90;;;;;;;4.62;51.55;102338.50;5082699;28;20067;-78
2024/01/22 09:47:56;;;;;;;25.67;8.00;;;;;;;4.50;53.24;102343.03;5079234;28;20051;-78
2024/01/22 09:50:52;;;;;;;14.98;6.38;;;;;;;4.47;53.89;102347.00;5079014;28;20051;-78
2024/01/22 09:53:49;;;;;;;16.40;6.20;;;;;;;4.69;53.85;102342.69;5078587;28;20047;-79
2024/01/22 09:56:43;;;;;;;21.80;8.85;;;;;;;4.89;53.01;102346.88;5073919;28;20039;-80
2024/01/22 09:59:33;;;;;;;22.08;9.95;;;;;;;4.91;53.12;102345.59;5082625;28;20043;-80
2024/01/22 10:02:28;;;;;;;14.57;9.02;;;;;;;5.02;53.61;102342.06;5073273;28;20043;-78
2024/01/22 10:05:23;;;;;;;23.73;9.27;;;;;;;5.06;52.96;102340.50;5077906;28;20055;-79
2024/01/22 10:08:20;;;;;;;34.55;21.55;;;;;;;5.26;52.38;102337.41;5081724;28;20047;-80
2024/01/22 10:11:13;;;;;;;12.80;7.85;;;;;;;5.26;52.18;102326.63;5080091;28;20051;-79
2024/01/22 10:14:08;;;;;;;18.80;7.85;;;;;;;5.66;51.40;102333.81;5084144;28;20052;-78
2024/01/22 10:17:16;;;;;;;17.65;8.63;;;;;;;5.89;51.56;102329.13;5079182;28;20047;-78
2024/01/22 10:20:16;;;;;;;14.60;9.27;;;;;;;6.10;51.03;102321.38;5078668;28;20044;-81
2024/01/22 10:23:10;;;;;;;27.83;10.30;;;;;;;6.08;51.55;102328.91;5081658;28;20051;-80
2024/01/22 10:26:13;;;;;;;17.35;10.52;;;;;;;6.33;51.13;102324.75;5079320;28;20039;-79
2024/01/22 10:29:20;;;;;;;19.45;9.55;;;;;;;6.33;51.10;102321.22;5082321;28;20055;-79
2024/01/22 10:32:12;;;;;;;18.48;8.70;;;;;;;6.54;51.60;102317.75;5079818;28;20048;-79
2024/01/22 10:35:06;;;;;;;24.60;10.18;;;;;;;6.64;51.09;102323.28;5082472;28;20055;-80
2024/01/22 10:38:09;;;;;;;16.08;10.52;;;;;;;6.70;51.06;102316.91;5080498;28;20048;-79
2024/01/22 10:41:05;;;;;;;28.25;9.18;;;;;;;6.71;51.69;102312.28;5075014;28;20047;-79
2024/01/22 10:43:58;;;;;;;18.50;10.95;;;;;;;6.82;51.17;102309.47;5079460;28;20047;-79
2024/01/22 10:46:51;;;;;;;19.55;11.60;;;;;;;6.72;50.99;102306.63;5076921;28;20048;-79
2024/01/22 10:49:46;;;;;;;20.40;11.00;;;;;;;6.87;50.12;102295.19;5080515;28;20056;-79
2024/01/22 10:52:46;;;;;;;22.13;12.02;;;;;;;7.03;50.29;102293.50;5079350;28;20516;-79
2024/01/22 10:55:38;;;;;;;20.08;11.55;;;;;;;7.10;50.10;102294.13;5076015;28;20055;-81
2024/01/22 10:58:42;;;;;;;17.65;7.78;;;;;;;7.26;49.55;102285.91;5079255;28;20052;-79
2024/01/22 11:01:33;;;;;;;19.63;11.90;;;;;;;7.34;48.97;102295.47;5076240;28;20044;-79
2024/01/22 11:04:29;;;;;;;25.52;11.80;;;;;;;7.45;48.69;102285.56;5079870;28;20059;-79
2024/01/22 11:07:28;;;;;;;19.35;11.48;;;;;;;7.62;48.38;102284.38;5077779;28;20040;-81
2024/01/22 11:10:23;;;;;;;18.95;9.80;;;;;;;7.78;47.38;102285.31;5080799;28;20458;-80
2024/01/22 11:13:17;;;;;;;17.52;9.63;;;;;;;7.96;46.42;102286.84;5079046;28;20040;-79
2024/01/22 11:16:10;;;;;;;15.38;9.10;;;;;;;8.13;46.58;102279.38;5076367;28;20051;-80
2024/01/22 11:19:07;;;;;;;14.93;9.05;;;;;;;8.24;46.33;102278.38;5080134;28;20044;-81
2024/01/22 11:21:59;;;;;;;22.83;10.65;;;;;;;8.37;45.96;102267.13;5077619;28;20043;-79
2024/01/22 11:25:09;;;;;;;19.33;9.82;;;;;;;8.52;45.22;102269.91;5081088;28;20063;-79
2024/01/22 11:28:15;;;;;;;18.25;9.52;;;;;;;8.58;45.23;102258.00;5078866;28;20063;-79
2024/01/22 11:31:31;;;;;;;17.60;8.73;;;;;;;8.63;44.53;102249.09;5081590;28;20048;-79
2024/01/22 11:34:44;;;;;;;26.52;10.98;;;;;;;8.85;44.44;102249.69;5079003;28;20267;-80
2024/01/22 11:37:37;;;;;;;17.67;8.63;;;;;;;9.00;43.80;102229.94;5081442;28;20059;-80
2024/01/22 11:40:47;;;;;;;;;;;;;;;9.10;43.79;102234.56;5075421;28;20047;-80
2024/01/22 11:43:34;;;;;;;17.88;8.88;;;;;;;9.04;42.82;102225.59;5050378;28;19916;-80
2024/01/22 11:46:26;;;;;;;15.55;8.48;;;;;;;9.25;42.66;102224.56;5056915;28;20529;-79
2024/01/22 11:49:20;;;;;;;17.48;9.15;;;;;;;9.33;42.22;102221.34;5055956;28;20044;-79
2024/01/22 11:52:22;;;;;;;18.37;7.53;;;;;;;9.37;41.46;102216.19;5060049;28;20369;-80
2024/01/22 11:55:17;;;;;;;13.07;8.60;;;;;;;9.40;42.43;102205.59;5064510;28;20053;-79
2024/01/22 11:58:12;;;;;;;15.70;9.35;;;;;;;9.55;42.56;102195.84;5084328;28;20043;-79
2024/01/22 12:01:07;;;;;;;15.35;9.02;;;;;;;9.61;42.55;102184.69;5088453;28;20047;-79
2024/01/22 12:04:07;;;;;;;21.88;10.25;;;;;;;9.66;42.69;102181.13;5086306;28;20052;-80
2024/01/22 12:07:00;;;;;;;14.43;7.97;;;;;;;9.63;42.63;102177.09;5087515;28;20043;-79
2024/01/22 12:09:52;;;;;;;15.48;8.30;;;;;;;9.68;41.95;102168.94;5087271;28;20071;-79
2024/01/22 12:12:49;;;;;;;19.80;10.73;;;;;;;9.50;42.27;102166.75;5085755;28;20107;-78
2024/01/22 12:15:44;;;;;;;13.93;8.30;;;;;;;9.49;42.39;102161.63;5088656;28;20055;-78
2024/01/22 12:18:42;;;;;;;17.95;8.85;;;;;;;9.75;42.16;102157.78;5084820;28;20043;-80
2024/01/22 12:21:36;;;;;;;16.17;8.48;;;;;;;9.96;42.19;102151.22;5089154;28;20050;-80
2024/01/22 12:24:34;;;;;;;17.30;7.63;;;;;;;10.02;41.05;102147.38;5085749;28;20052;-80
2024/01/22 12:27:30;;;;;;;9.65;6.63;;;;;;;10.15;41.73;102141.38;5086917;28;20055;-81
2024/01/22 12:30:25;;;;;;;14.45;8.65;;;;;;;10.23;41.47;102135.41;5086885;28;20115;-80
2024/01/22 12:33:27;;;;;;;14.70;9.30;;;;;;;10.48;41.97;102128.22;5083543;28;20044;-81
2024/01/22 12:36:20;;;;;;;18.13;10.38;;;;;;;10.43;42.53;102122.81;5087653;28;20039;-78
2024/01/22 12:39:19;;;;;;;21.38;10.63;;;;;;;10.49;42.82;102118.97;5091063;28;20044;-79
2024/01/22 12:42:21;;;;;;;16.95;9.25;;;;;;;10.62;41.70;102115.63;5095228;28;20041;-76
2024/01/22 12:45:18;;;;;;;15.75;8.65;;;;;;;10.72;41.46;102096.50;5093022;28;20050;-80
2024/01/22 12:48:09;;;;;;;19.27;10.65;;;;;;;10.83;41.73;102095.34;5090997;28;20046;-78
2024/01/22 12:50:56;;;;;;;13.63;8.48;;;;;;;10.96;40.83;102097.44;5089779;28;20055;-77
2024/01/22 12:53:49;;;;;;;12.10;7.10;;;;;;;11.12;40.29;102096.22;5087349;28;20051;-79
2024/01/22 12:56:41;;;;;;;10.85;7.75;;;;;;;11.31;40.25;102080.00;5091963;28;20038;-78
2024/01/22 12:59:28;;;;;;;21.60;10.25;;;;;;;11.19;41.12;102076.03;5090172;28;20043;-78
2024/01/22 13:02:23;;;;;;;17.35;8.57;;;;;;;11.29;41.47;102067.75;5079177;28;20043;-79
2024/01/22 13:05:17;;;;;;;13.05;8.98;;;;;;;11.41;41.60;102066.28;5081419;28;20047;-79
2024/01/22 13:08:13;;;;;;;19.33;9.57;;;;;;;11.32;42.21;102056.31;5081163;28;20425;-78
2024/01/22 13:11:05;;;;;;;15.90;9.15;;;;;;;11.49;41.99;102046.59;5089911;28;20043;-78
2024/01/22 13:13:57;;;;;;;15.23;9.63;;;;;;;11.50;42.47;102045.50;5088230;28;20055;-79
2024/01/22 13:16:47;;;;;;;18.35;10.40;;;;;;;11.20;42.73;102034.09;5086001;28;20064;-78
2024/01/22 13:19:41;;;;;;;23.42;9.40;;;;;;;11.33;41.82;102038.84;5088225;28;20036;-78
2024/01/22 13:22:36;;;;;;;17.93;9.43;;;;;;;11.61;41.19;102046.19;5088016;28;20051;-79
2024/01/22 13:25:28;;;;;;;14.02;8.60;;;;;;;11.77;40.63;102036.78;5085204;28;20055;-79
2024/01/22 13:28:18;;;;;;;15.15;8.38;;;;;;;11.76;40.04;102028.88;5087878;28;20044;-79
2024/01/22 13:31:10;;;;;;;15.45;9.63;;;;;;;11.81;40.64;102037.81;5086634;28;20410;-79
2024/01/22 13:33:59;;;;;;;16.20;9.68;;;;;;;11.59;41.20;102043.75;5084510;28;20047;-78
2024/01/22 13:36:52;;;;;;;22.75;9.52;;;;;;;11.64;41.33;102031.97;5086694;28;20048;-78
2024/01/22 13:39:42;;;;;;;20.35;9.70;;;;;;;11.61;40.93;102029.03;5087683;28;20052;-78
2024/01/22 13:42:34;;;;;;;18.08;9.57;;;;;;;11.57;40.99;102026.09;5092151;28;20060;-78
2024/01/22 13:45:24;;;;;;;17.42;9.73;;;;;;;11.44;41.02;102027.56;5090494;28;20390;-77
2024/01/22 13:48:16;;;;;;;15.02;9.80;;;;;;;11.74;40.25;102007.38;5088285;28;20047;-78
2024/01/22 13:51:03;;;;;;;18.60;11.05;;;;;;;11.62;40.30;102001.50;5090802;28;20036;-77
2024/01/22 13:53:58;;;;;;;16.27;10.57;;;;;;;11.57;39.84;101998.84;5085537;28;20548;-79
2024/01/22 13:56:50;;;;;;;17.97;10.83;;;;;;;11.75;38.84;101992.66;5078362;28;20040;-78
2024/01/22 13:59:42;;;;;;;16.17;11.77;;;;;;;11.69;38.63;101988.31;5089118;28;20632;-79
2024/01/22 14:02:37;;;;;;;18.33;10.70;;;;;;;11.70;38.53;101991.84;5076300;28;20052;-77
2024/01/22 14:05:29;;;;;;;14.60;10.38;;;;;;;11.99;38.07;101989.88;5079913;28;20036;-77
2024/01/22 14:08:20;;;;;;;;;;;;;;;11.85;37.59;101981.63;5076998;28;20036;-77
2024/01/22 14:11:11;;;;;;;15.65;9.95;;;;;;;12.07;37.72;101985.69;5075422;28;20376;-78
2024/01/22 14:14:01;;;;;;;16.15;10.45;;;;;;;11.81;37.19;101977.84;5081000;28;20043;-78
2024/01/22 14:16:53;;;;;;;14.18;9.98;;;;;;;11.61;37.87;101974.53;5079477;28;20036;-78